Terminal Aerodrome Forecast
Issued by NWS Blacksburg, VA

Current Version | Previous Version | Graphics & Text | Print | Product List | Glossary On
Versions: 1 2 3 4 5 6 7 8 9 10 11 12 13 14 15 16 17
000
FTUS41 KRNK 140539
TAFBLF
TAF
KBLF 140539Z 1406/1506 26017G29KT P6SM VCSH BKN025
     FM140800 28015G25KT P6SM BKN025
     FM142200 30005KT P6SM BKN035=

USA.gov is the U.S. government's official web portal to all federal, state and local government web resources and services.